Addlestone, United Kingdom
Current Conditions -  °F | °C
As of 10:20 AM on Friday 21 Nov 2014 (Local Time) from EGLL Reporting Station
Light Rain Light Rain  
Wind Chill: 42°   Ceiling: 1100
Heat Index: 46°   Visibility: 4mi
Dew Point: 43°   Wind: 9mph
Humidity: 87%   Direction: 110°ESE
Pressure: 30.09"   Gusts: NA
Location:  51.37°N, 0.49°W
Report Text: EGLL 211020Z 11008KT 6000 -RADZ OVC011 08/06 Q1019 NOSIG
Loading
Personal Weather Stations






























Interactive Weather Map New forecast layout! Learn more

10-Day Weather Forecast

Advertisements
Track Severe Weather on mobile